createdAt,value
2023-04-18T00:01:21.879Z,9.39
2023-04-18T00:03:52.137Z,9.37
2023-04-18T00:06:22.331Z,9.36
2023-04-18T00:08:51.770Z,9.33
2023-04-18T00:11:20.851Z,9.35
2023-04-18T00:13:49.293Z,9.37
2023-04-18T00:16:18.204Z,9.37
2023-04-18T00:18:48.371Z,9.30
2023-04-18T00:21:17.589Z,9.31
2023-04-18T00:23:46.409Z,9.31
2023-04-18T00:26:15.102Z,9.27
2023-04-18T00:28:46.301Z,9.25
2023-04-18T00:31:14.942Z,9.26
2023-04-18T00:33:44.425Z,9.25
2023-04-18T00:36:14.646Z,9.26
2023-04-18T00:38:43.314Z,9.26
2023-04-18T00:41:11.926Z,9.27
2023-04-18T00:43:40.565Z,9.29
2023-04-18T00:46:09.731Z,9.28
2023-04-18T00:48:39.222Z,9.29
2023-04-18T00:51:08.791Z,9.28
2023-04-18T00:53:39.282Z,9.29
2023-04-18T00:56:08.186Z,9.30
2023-04-18T00:58:37.185Z,9.33
2023-04-18T01:01:06.776Z,9.35
2023-04-18T01:03:35.727Z,9.32
2023-04-18T01:06:04.978Z,9.31
2023-04-18T01:08:36.025Z,9.29
2023-04-18T01:11:06.114Z,9.29
2023-04-18T01:13:34.804Z,9.23
2023-04-18T01:16:06.512Z,9.22
2023-04-18T01:18:35.399Z,9.19
2023-04-18T01:21:06.331Z,9.16
2023-04-18T01:23:35.125Z,9.16
2023-04-18T01:26:05.330Z,9.13
2023-04-18T01:28:38.311Z,9.09
2023-04-18T01:31:09.251Z,9.07
2023-04-18T01:33:38.900Z,9.00
2023-04-18T01:36:07.850Z,9.06
2023-04-18T01:38:36.466Z,9.08
2023-04-18T01:41:06.502Z,9.03
2023-04-18T01:43:35.857Z,8.98
2023-04-18T01:46:06.486Z,9.01
2023-04-18T01:48:37.579Z,9.02
2023-04-18T01:51:06.923Z,9.02
2023-04-18T01:53:35.553Z,9.04
2023-04-18T01:56:05.606Z,9.05
2023-04-18T01:58:34.768Z,9.09
2023-04-18T02:01:04.227Z,9.12
2023-04-18T02:03:33.899Z,9.12
2023-04-18T02:06:04.184Z,9.14
2023-04-18T02:08:35.967Z,9.15
2023-04-18T02:11:09.032Z,9.11
2023-04-18T02:13:37.722Z,9.06
2023-04-18T02:16:13.709Z,9.06
2023-04-18T02:18:45.666Z,9.05
2023-04-18T02:21:15.439Z,9.07
2023-04-18T02:23:44.035Z,9.10
2023-04-18T02:26:14.063Z,9.09
2023-04-18T02:28:43.228Z,9.10
2023-04-18T02:31:15.031Z,9.10
2023-04-18T02:33:43.896Z,9.11
2023-04-18T02:36:13.837Z,9.12
2023-04-18T02:38:45.031Z,9.12
2023-04-18T02:41:19.603Z,9.10
2023-04-18T02:43:48.742Z,9.09
2023-04-18T02:46:19.409Z,9.08
2023-04-18T02:48:49.925Z,9.08
2023-04-18T02:51:20.944Z,9.07
2023-04-18T02:53:49.688Z,9.06
2023-04-18T02:56:20.145Z,9.10
2023-04-18T02:59:08.073Z,9.11
2023-04-18T03:02:09.133Z,9.11
2023-04-18T03:04:41.878Z,9.12
2023-04-18T03:07:11.661Z,9.12
2023-04-18T03:09:41.479Z,9.12
2023-04-18T03:12:20.616Z,9.14
2023-04-18T03:14:49.610Z,9.13
2023-04-18T03:17:18.696Z,9.15
2023-04-18T03:19:50.287Z,9.15
2023-04-18T03:22:21.990Z,9.11
2023-04-18T03:24:57.194Z,9.12
2023-04-18T03:27:43.032Z,9.10
2023-04-18T03:30:13.847Z,9.08
2023-04-18T03:32:46.878Z,9.05
2023-04-18T03:35:15.882Z,9.09
2023-04-18T03:37:44.689Z,9.09
2023-04-18T03:40:20.288Z,9.07
2023-04-18T03:42:53.712Z,9.09
2023-04-18T03:45:22.708Z,9.14
2023-04-18T03:47:52.598Z,9.21
2023-04-18T03:50:24.530Z,9.12
2023-04-18T03:52:55.428Z,9.10
2023-04-18T03:55:24.428Z,9.10
2023-04-18T03:57:55.164Z,9.11
2023-04-18T04:00:29.295Z,9.16
2023-04-18T04:03:07.723Z,9.12
2023-04-18T04:05:39.993Z,9.11
2023-04-18T04:08:08.373Z,9.10
2023-04-18T04:10:37.382Z,9.10
2023-04-18T04:13:07.789Z,9.07
2023-04-18T04:15:40.228Z,9.11
2023-04-18T04:18:11.714Z,9.09
2023-04-18T04:20:44.340Z,9.09
2023-04-18T04:23:26.986Z,9.11
2023-04-18T04:25:56.379Z,9.13
2023-04-18T04:28:46.783Z,9.15
2023-04-18T04:31:19.309Z,9.17
2023-04-18T04:33:48.093Z,9.18
2023-04-18T04:36:21.505Z,9.20
2023-04-18T04:38:52.861Z,9.23
2023-04-18T04:41:29.784Z,9.24
2023-04-18T04:44:02.214Z,9.26
2023-04-18T04:46:34.997Z,9.26
2023-04-18T04:49:08.271Z,9.27
2023-04-18T04:51:37.377Z,9.27
2023-04-18T04:54:06.351Z,9.29
2023-04-18T04:56:35.052Z,9.31
2023-04-18T04:59:06.156Z,9.35
2023-04-18T05:01:42.376Z,9.41
2023-04-18T05:04:11.126Z,9.49
2023-04-18T05:06:40.424Z,9.47
2023-04-18T05:09:09.232Z,9.49
2023-04-18T05:11:38.578Z,9.51
2023-04-18T05:14:08.859Z,9.55
2023-04-18T05:16:37.611Z,9.55
2023-04-18T05:19:06.406Z,9.58
2023-04-18T05:21:35.685Z,9.59
2023-04-18T05:24:04.416Z,9.61
2023-04-18T05:26:33.260Z,9.62
2023-04-18T05:29:02.081Z,9.82
2023-04-18T05:31:32.718Z,9.86
2023-04-18T05:34:01.702Z,9.90
2023-04-18T05:36:30.781Z,9.93
2023-04-18T05:38:59.472Z,10.04
2023-04-18T05:41:28.167Z,10.13
2023-04-18T05:44:04.739Z,10.20
2023-04-18T05:46:47.199Z,10.26
2023-04-18T05:49:16.186Z,10.31
2023-04-18T05:51:45.007Z,10.19
2023-04-18T05:54:14.312Z,10.17
2023-04-18T05:56:43.367Z,10.17
2023-04-18T05:59:12.182Z,10.18
2023-04-18T06:01:41.226Z,10.28
2023-04-18T06:04:12.643Z,10.40
2023-04-18T06:06:41.857Z,10.44
2023-04-18T06:09:10.538Z,10.34
2023-04-18T06:11:39.091Z,10.33
2023-04-18T06:14:08.191Z,10.36
2023-04-18T06:16:38.392Z,10.45
2023-04-18T06:19:07.519Z,10.46
2023-04-18T06:21:38.423Z,10.51
2023-04-18T06:24:07.973Z,10.56
2023-04-18T06:26:37.332Z,10.62
2023-04-18T06:29:06.093Z,10.72
2023-04-18T06:31:35.931Z,10.81
2023-04-18T06:34:04.550Z,10.91
2023-04-18T06:36:33.113Z,11.04
2023-04-18T06:39:03.624Z,11.20
2023-04-18T06:41:32.976Z,11.55
2023-04-18T06:44:03.560Z,11.69
2023-04-18T06:46:33.495Z,11.78
2023-04-18T06:49:02.368Z,11.91
2023-04-18T06:51:31.803Z,12.01
2023-04-18T06:54:00.773Z,12.05
2023-04-18T06:56:32.125Z,12.08
2023-04-18T06:59:01.907Z,12.20
2023-04-18T07:01:33.449Z,12.32
2023-04-18T07:04:03.308Z,12.48
2023-04-18T07:06:32.368Z,12.58
2023-04-18T07:09:01.946Z,12.66
2023-04-18T07:11:32.511Z,12.76
2023-04-18T07:14:01.288Z,12.86
2023-04-18T07:16:30.222Z,12.89
2023-04-18T07:18:59.551Z,13.03
2023-04-18T07:21:28.671Z,13.17
2023-04-18T07:23:59.537Z,13.17
2023-04-18T07:26:29.634Z,13.23
2023-04-18T07:28:59.741Z,13.41
2023-04-18T07:31:28.816Z,13.47
2023-04-18T07:33:57.894Z,13.52
2023-04-18T07:36:26.765Z,13.54
2023-04-18T07:38:55.915Z,13.49
2023-04-18T07:41:25.600Z,13.48
2023-04-18T07:43:54.405Z,13.46
2023-04-18T07:46:25.278Z,13.49
2023-04-18T07:48:54.346Z,13.54
2023-04-18T07:51:25.701Z,13.57
2023-04-18T07:53:54.368Z,13.57
2023-04-18T07:56:23.297Z,13.61
2023-04-18T07:58:53.090Z,13.67
2023-04-18T08:01:25.013Z,13.77
2023-04-18T08:03:57.446Z,13.84
2023-04-18T08:06:27.216Z,13.79
2023-04-18T08:08:56.120Z,13.75
2023-04-18T08:11:25.060Z,13.64
2023-04-18T08:13:54.444Z,13.64
2023-04-18T08:16:23.845Z,13.62
2023-04-18T08:18:52.764Z,13.52
2023-04-18T08:21:23.754Z,13.45
2023-04-18T08:23:53.380Z,13.40
2023-04-18T08:26:23.037Z,13.37
2023-04-18T08:28:52.330Z,13.35
2023-04-18T08:31:23.043Z,13.34
2023-04-18T08:33:52.661Z,13.36
2023-04-18T08:36:23.488Z,13.41
2023-04-18T08:38:52.643Z,13.40
2023-04-18T08:41:24.419Z,13.39
2023-04-18T08:43:56.991Z,13.41
2023-04-18T08:46:26.661Z,13.48
2023-04-18T08:48:58.780Z,13.56
2023-04-18T08:51:32.830Z,13.71
2023-04-18T08:54:05.277Z,13.82
2023-04-18T08:56:34.312Z,13.92
2023-04-18T08:59:03.406Z,14.07
2023-04-18T09:01:57.003Z,14.28
2023-04-18T09:04:38.398Z,14.47
2023-04-18T09:07:11.006Z,14.60
2023-04-18T09:09:45.112Z,14.69
2023-04-18T09:12:15.827Z,14.67
2023-04-18T09:14:48.771Z,14.66
2023-04-18T09:17:32.837Z,14.66
2023-04-18T09:20:02.707Z,14.62
2023-04-18T09:22:48.088Z,14.59
2023-04-18T09:25:27.703Z,14.57
2023-04-18T09:27:57.572Z,14.54
2023-04-18T09:30:34.151Z,14.54
2023-04-18T09:33:06.586Z,14.58
2023-04-18T09:35:36.082Z,14.57
2023-04-18T09:38:08.932Z,14.64
2023-04-18T09:40:37.967Z,14.68
2023-04-18T09:43:20.768Z,14.70
2023-04-18T09:45:50.189Z,14.79
2023-04-18T09:48:19.276Z,14.83
2023-04-18T09:50:49.775Z,14.78
2023-04-18T09:53:21.689Z,14.77
2023-04-18T09:55:57.625Z,14.75
2023-04-18T09:58:32.445Z,14.80
2023-04-18T10:01:02.144Z,14.90
2023-04-18T10:03:36.193Z,14.94
2023-04-18T10:06:06.086Z,14.99
2023-04-18T10:08:36.416Z,15.10
2023-04-18T10:11:05.275Z,15.24
2023-04-18T10:13:39.887Z,15.36
2023-04-18T10:16:10.691Z,15.38
2023-04-18T10:18:39.503Z,15.41
2023-04-18T10:21:10.780Z,15.38
2023-04-18T10:23:42.208Z,15.46
2023-04-18T10:26:12.229Z,15.51
2023-04-18T10:28:58.148Z,15.40
2023-04-18T10:31:29.161Z,15.47
2023-04-18T10:34:18.313Z,15.55
2023-04-18T10:37:04.920Z,15.63
2023-04-18T10:39:49.535Z,15.68
2023-04-18T10:42:19.370Z,15.61
2023-04-18T10:45:18.877Z,15.53
2023-04-18T10:47:48.133Z,15.47
2023-04-18T10:50:17.538Z,15.45
2023-04-18T10:52:46.486Z,15.42
2023-04-18T10:55:20.342Z,15.36
2023-04-18T10:57:51.716Z,15.28
2023-04-18T11:00:22.097Z,15.24
2023-04-18T11:02:54.137Z,15.23
2023-04-18T11:05:26.979Z,15.24
2023-04-18T11:07:59.108Z,15.31
2023-04-18T11:10:32.122Z,15.37
2023-04-18T11:13:04.936Z,15.44
2023-04-18T11:15:34.064Z,15.54
2023-04-18T11:18:07.848Z,15.60
2023-04-18T11:20:41.165Z,15.60
2023-04-18T11:23:21.210Z,15.53
2023-04-18T11:25:54.191Z,15.47
2023-04-18T11:28:28.863Z,15.40
2023-04-18T11:31:03.288Z,15.40
2023-04-18T11:33:33.221Z,15.47
2023-04-18T11:36:06.753Z,15.56
2023-04-18T11:38:38.713Z,15.63
2023-04-18T11:41:14.005Z,15.68
2023-04-18T11:43:45.512Z,15.77
2023-04-18T11:46:16.851Z,15.79
2023-04-18T11:48:47.029Z,15.90
2023-04-18T11:51:36.164Z,16.03
2023-04-18T11:54:05.339Z,16.16
2023-04-18T11:56:36.922Z,16.30
2023-04-18T11:59:10.683Z,16.43
2023-04-18T12:01:39.678Z,16.58
2023-04-18T12:04:09.883Z,16.73
2023-04-18T12:06:54.849Z,16.85
2023-04-18T12:09:26.360Z,16.88
2023-04-18T12:12:01.780Z,16.83
2023-04-18T12:14:32.059Z,16.81
2023-04-18T12:17:04.782Z,16.68
2023-04-18T12:19:34.536Z,16.37
2023-04-18T12:22:05.411Z,16.03
2023-04-18T12:24:34.777Z,15.81
2023-04-18T12:27:05.343Z,15.72
2023-04-18T12:29:34.179Z,15.70
2023-04-18T12:32:04.681Z,15.69
2023-04-18T12:34:37.171Z,15.78
2023-04-18T12:37:06.334Z,16.01
2023-04-18T12:39:35.215Z,16.23
2023-04-18T12:42:06.216Z,16.33
2023-04-18T12:44:36.701Z,16.44
2023-04-18T12:47:06.027Z,16.44
2023-04-18T12:49:35.609Z,16.44
2023-04-18T12:52:04.197Z,16.42
2023-04-18T12:54:37.840Z,16.40
2023-04-18T12:57:08.299Z,16.44
2023-04-18T12:59:37.397Z,16.52
2023-04-18T13:02:06.673Z,16.56
2023-04-18T13:04:36.537Z,16.56
2023-04-18T13:07:08.398Z,16.54
2023-04-18T13:09:37.708Z,16.39
2023-04-18T13:12:08.853Z,16.22
2023-04-18T13:14:40.488Z,16.15
2023-04-18T13:17:09.115Z,16.07
2023-04-18T13:19:38.063Z,16.02
2023-04-18T13:22:07.137Z,15.95
2023-04-18T13:24:37.258Z,15.88
2023-04-18T13:27:10.889Z,15.86
2023-04-18T13:29:41.437Z,15.81
2023-04-18T13:32:11.334Z,15.85
2023-04-18T13:34:45.357Z,15.87
2023-04-18T13:37:15.256Z,15.90
2023-04-18T13:39:45.169Z,15.95
2023-04-18T13:42:16.353Z,15.95
2023-04-18T13:44:45.291Z,15.88
2023-04-18T13:47:14.267Z,15.82
2023-04-18T13:49:46.376Z,15.81
2023-04-18T13:52:16.014Z,15.80
2023-04-18T13:54:49.279Z,15.74
2023-04-18T13:57:22.101Z,15.74
2023-04-18T13:59:51.041Z,15.70
2023-04-18T14:02:20.054Z,15.65
2023-04-18T14:04:49.243Z,15.66
2023-04-18T14:07:18.457Z,15.67
2023-04-18T14:09:52.037Z,15.70
2023-04-18T14:12:24.812Z,15.73
2023-04-18T14:14:56.974Z,15.74
2023-04-18T14:17:26.155Z,15.76
2023-04-18T14:19:56.960Z,15.77
2023-04-18T14:22:26.022Z,15.79
2023-04-18T14:24:56.497Z,15.77
2023-04-18T14:27:27.992Z,15.83
2023-04-18T14:29:56.754Z,15.94
2023-04-18T14:32:25.702Z,16.03
2023-04-18T14:34:54.493Z,16.09
2023-04-18T14:37:23.746Z,16.12
2023-04-18T14:39:56.719Z,16.26
2023-04-18T14:42:27.205Z,16.36
2023-04-18T14:44:56.341Z,16.38
2023-04-18T14:47:31.174Z,16.34
2023-04-18T14:50:00.001Z,16.39
2023-04-18T14:52:28.957Z,16.40
2023-04-18T14:54:58.087Z,16.40
2023-04-18T14:57:30.568Z,16.51
2023-04-18T15:00:00.187Z,16.59
2023-04-18T15:02:32.666Z,16.61
2023-04-18T15:05:03.784Z,16.58
2023-04-18T15:07:32.961Z,16.51
2023-04-18T15:10:01.990Z,16.43
2023-04-18T15:12:32.737Z,16.27
2023-04-18T15:15:01.921Z,16.10
2023-04-18T15:17:31.516Z,15.95
2023-04-18T15:20:01.133Z,15.82
2023-04-18T15:22:29.902Z,15.76
2023-04-18T15:24:58.889Z,15.71
2023-04-18T15:27:28.020Z,15.67
2023-04-18T15:29:58.337Z,15.64
2023-04-18T15:32:28.491Z,15.61
2023-04-18T15:34:57.690Z,15.58
2023-04-18T15:37:27.864Z,15.58
2023-04-18T15:39:57.270Z,15.60
2023-04-18T15:42:26.363Z,15.60
2023-04-18T15:44:55.127Z,15.60
2023-04-18T15:47:26.534Z,15.59
2023-04-18T15:49:55.840Z,15.57
2023-04-18T15:52:24.525Z,15.54
2023-04-18T15:54:53.254Z,15.53
2023-04-18T15:57:26.460Z,15.50
2023-04-18T15:59:55.309Z,15.45
2023-04-18T16:02:27.374Z,15.42
2023-04-18T16:04:56.598Z,15.38
2023-04-18T16:07:25.908Z,15.31
2023-04-18T16:09:55.080Z,15.30
2023-04-18T16:12:24.008Z,15.25
2023-04-18T16:14:52.727Z,15.16
2023-04-18T16:17:22.641Z,15.13
2023-04-18T16:19:53.110Z,15.09
2023-04-18T16:22:22.103Z,15.07
2023-04-18T16:24:54.062Z,15.02
2023-04-18T16:27:23.479Z,14.96
2023-04-18T16:29:53.957Z,14.93
2023-04-18T16:32:23.826Z,14.91
2023-04-18T16:34:54.125Z,14.88
2023-04-18T16:37:23.181Z,14.86
2023-04-18T16:39:52.420Z,14.84
2023-04-18T16:42:21.253Z,14.80
2023-04-18T16:44:50.862Z,14.76
2023-04-18T16:47:20.617Z,14.75
2023-04-18T16:49:52.064Z,14.72
2023-04-18T16:52:22.676Z,14.66
2023-04-18T16:54:52.754Z,14.64
2023-04-18T16:57:21.728Z,14.62
2023-04-18T16:59:50.246Z,14.59
2023-04-18T17:02:19.114Z,14.56
2023-04-18T17:04:49.235Z,14.53
2023-04-18T17:07:18.261Z,14.50
2023-04-18T17:09:48.811Z,14.47
2023-04-18T17:12:17.594Z,14.45
2023-04-18T17:14:50.028Z,14.42
2023-04-18T17:17:21.806Z,14.37
2023-04-18T17:19:50.482Z,14.34
2023-04-18T17:22:23.205Z,14.31
2023-04-18T17:24:56.072Z,14.28
2023-04-18T17:27:24.939Z,14.27
2023-04-18T17:29:53.862Z,14.23
2023-04-18T17:32:23.943Z,14.19
2023-04-18T17:34:54.001Z,14.16
2023-04-18T17:37:23.718Z,14.11
2023-04-18T17:39:54.793Z,14.09
2023-04-18T17:42:23.487Z,14.03
2023-04-18T17:44:54.883Z,14.00
2023-04-18T17:47:25.720Z,14.00
2023-04-18T17:49:54.845Z,13.95
2023-04-18T17:52:24.096Z,13.95
2023-04-18T17:54:54.252Z,13.90
2023-04-18T17:57:26.253Z,13.87
2023-04-18T17:59:55.069Z,13.84
2023-04-18T18:02:25.011Z,13.82
2023-04-18T18:04:56.611Z,13.81
2023-04-18T18:07:25.474Z,13.78
2023-04-18T18:09:56.389Z,13.77
2023-04-18T18:12:26.417Z,13.71
2023-04-18T18:14:57.418Z,13.70
2023-04-18T18:17:27.080Z,13.67
2023-04-18T18:19:56.103Z,13.64
2023-04-18T18:22:27.583Z,13.59
2023-04-18T18:24:58.165Z,13.61
2023-04-18T18:27:27.407Z,13.58
2023-04-18T18:29:56.486Z,13.56
2023-04-18T18:32:26.980Z,13.56
2023-04-18T18:34:56.397Z,13.53
2023-04-18T18:37:26.996Z,13.51
2023-04-18T18:39:56.505Z,13.49
2023-04-18T18:42:27.287Z,13.45
2023-04-18T18:44:56.213Z,13.42
2023-04-18T18:47:26.757Z,13.38
2023-04-18T18:49:57.352Z,13.37
2023-04-18T18:52:28.992Z,13.33
2023-04-18T18:54:58.744Z,13.29
2023-04-18T18:57:29.863Z,13.24
2023-04-18T18:59:58.858Z,13.20
2023-04-18T19:02:30.963Z,13.20
2023-04-18T19:05:00.565Z,13.17
2023-04-18T19:07:30.185Z,13.15
2023-04-18T19:10:00.759Z,13.13
2023-04-18T19:12:33.136Z,13.10
2023-04-18T19:15:03.316Z,13.04
2023-04-18T19:17:32.697Z,13.00
2023-04-18T19:20:01.834Z,12.95
2023-04-18T19:22:32.026Z,12.86
2023-04-18T19:25:01.154Z,12.84
2023-04-18T19:27:32.820Z,12.80
2023-04-18T19:30:02.023Z,12.80
2023-04-18T19:32:32.174Z,12.76
2023-04-18T19:35:01.809Z,12.75
2023-04-18T19:37:31.846Z,12.73
2023-04-18T19:40:00.743Z,12.70
2023-04-18T19:42:29.661Z,12.66
2023-04-18T19:45:00.485Z,12.61
2023-04-18T19:47:32.655Z,12.54
2023-04-18T19:50:01.940Z,12.51
2023-04-18T19:52:30.946Z,12.49
2023-04-18T19:54:59.918Z,12.47
2023-04-18T19:57:40.342Z,12.42
2023-04-18T20:00:12.397Z,12.40
2023-04-18T20:02:41.737Z,12.32
2023-04-18T20:05:12.013Z,12.30
2023-04-18T20:07:41.847Z,12.29
2023-04-18T20:10:11.328Z,12.25
2023-04-18T20:12:40.304Z,12.23
2023-04-18T20:15:12.067Z,12.21
2023-04-18T20:17:41.488Z,12.20
2023-04-18T20:20:11.150Z,12.17
2023-04-18T20:22:40.616Z,12.15
2023-04-18T20:25:10.207Z,12.11
2023-04-18T20:27:39.223Z,12.00
2023-04-18T20:30:08.837Z,12.02
2023-04-18T20:32:39.145Z,11.99
2023-04-18T20:35:09.585Z,11.91
2023-04-18T20:37:39.282Z,11.92
2023-04-18T20:40:11.126Z,11.88
2023-04-18T20:42:40.860Z,11.82
2023-04-18T20:45:12.328Z,11.77
2023-04-18T20:47:43.509Z,11.74
2023-04-18T20:50:14.261Z,11.71
2023-04-18T20:52:44.402Z,11.67
2023-04-18T20:55:13.432Z,11.60
2023-04-18T20:57:42.710Z,11.54
2023-04-18T21:00:12.480Z,11.50
2023-04-18T21:02:43.329Z,11.45
2023-04-18T21:05:12.484Z,11.39
2023-04-18T21:07:42.609Z,11.33
2023-04-18T21:10:12.899Z,11.29
2023-04-18T21:12:41.928Z,11.23
2023-04-18T21:15:11.547Z,11.20
2023-04-18T21:17:42.405Z,11.17
2023-04-18T21:20:11.566Z,11.12
2023-04-18T21:22:40.074Z,11.09
2023-04-18T21:25:09.406Z,11.05
2023-04-18T21:27:38.258Z,11.02
2023-04-18T21:30:08.662Z,10.99
2023-04-18T21:32:39.374Z,10.94
2023-04-18T21:35:10.245Z,10.87
2023-04-18T21:37:39.582Z,10.83
2023-04-18T21:40:09.464Z,10.81
2023-04-18T21:42:38.480Z,10.74
2023-04-18T21:45:08.814Z,10.69
2023-04-18T21:47:38.440Z,10.66
2023-04-18T21:50:10.266Z,10.61
2023-04-18T21:52:39.498Z,10.57
2023-04-18T21:55:08.683Z,10.55
2023-04-18T21:57:37.566Z,10.49
2023-04-18T22:00:09.320Z,10.44
2023-04-18T22:02:39.970Z,10.33
2023-04-18T22:05:13.032Z,10.28
2023-04-18T22:07:54.549Z,10.22
2023-04-18T22:10:26.281Z,10.13
2023-04-18T22:12:56.146Z,10.08
2023-04-18T22:15:27.274Z,10.09
2023-04-18T22:17:56.776Z,10.08
2023-04-18T22:20:28.078Z,10.07
2023-04-18T22:22:57.147Z,10.09
2023-04-18T22:25:26.199Z,10.12
2023-04-18T22:27:55.094Z,10.13
2023-04-18T22:30:24.961Z,10.14
2023-04-18T22:32:54.624Z,10.15
2023-04-18T22:35:23.413Z,10.15
2023-04-18T22:37:53.436Z,10.11
2023-04-18T22:40:22.843Z,10.09
2023-04-18T22:42:52.053Z,10.11
2023-04-18T22:45:21.924Z,10.12
2023-04-18T22:47:50.691Z,10.13
2023-04-18T22:50:19.772Z,10.18
2023-04-18T22:52:48.816Z,10.22
2023-04-18T22:55:20.270Z,10.22
2023-04-18T22:57:48.952Z,10.24
2023-04-18T23:00:18.170Z,10.26
2023-04-18T23:02:46.955Z,10.30
2023-04-18T23:05:16.947Z,10.33
2023-04-18T23:19:52.376Z,10.48
2023-04-18T23:22:21.482Z,10.51
2023-04-18T23:24:49.886Z,10.53
2023-04-18T23:27:18.279Z,10.55
2023-04-18T23:29:49.099Z,10.57
2023-04-18T23:32:17.800Z,10.59
2023-04-18T23:34:46.938Z,10.59
2023-04-18T23:37:17.072Z,10.63
2023-04-18T23:39:46.054Z,10.63
2023-04-18T23:42:14.566Z,10.65
2023-04-18T23:44:43.017Z,10.64
2023-04-18T23:47:11.543Z,10.67
2023-04-18T23:49:40.042Z,10.68
2023-04-18T23:52:08.678Z,10.67
2023-04-18T23:54:38.768Z,10.66
2023-04-18T23:57:07.437Z,10.64
2023-04-18T23:59:35.990Z,10.67
